Redington Beach, Florida
Current Conditions -  °F | °C
As of 11:53 PM on Monday 20 Oct 2014 (Local Time) from KPIE Reporting Station
Clear Clear  
Wind Chill: 76°   Ceiling: Unl
Heat Index: 76°   Visibility: 10mi
Dew Point: 66°   Wind: 7mph
Humidity: 71%   Direction: 20°NNE
Pressure: 29.97"   Gusts: NA
Location:  27.8164°N, 82.7802°W
Report Text: KPIE 210353Z AUTO 02006KT 10SM CLR 24/19 A2997 RMK AO2 SLP148 T02440189
Loading
Personal Weather Stations






























Interactive Weather Map
Tropical Storm Tracking
New forecast layout! Learn more

10-Day Weather Forecast

Advertisements
Track Severe Weather on mobile